createdAt,value
2018-06-27T00:00:07.213Z,0.00
2018-06-27T00:01:07.200Z,0.00
2018-06-27T00:02:21.698Z,0.00
2018-06-27T00:03:07.700Z,0.00
2018-06-27T00:04:07.703Z,0.00
2018-06-27T00:05:08.698Z,0.00
2018-06-27T00:06:08.207Z,0.00
2018-06-27T00:08:39.566Z,0.00
2018-06-27T00:09:38.928Z,0.00
2018-06-27T00:10:39.596Z,0.00
2018-06-27T00:13:32.322Z,0.00
2018-06-27T00:14:32.330Z,0.00
2018-06-27T00:15:33.258Z,0.00
2018-06-27T00:17:43.070Z,0.00
2018-06-27T00:18:42.413Z,0.00
2018-06-27T00:19:43.085Z,0.00
2018-06-27T00:21:04.079Z,0.00
2018-06-27T00:23:14.092Z,0.00
2018-06-27T00:24:14.841Z,0.00
2018-06-27T00:25:14.314Z,0.00
2018-06-27T00:27:46.572Z,0.00
2018-06-27T00:28:46.617Z,0.00
2018-06-27T00:29:46.580Z,0.00
2018-06-27T00:30:46.579Z,0.00
2018-06-27T00:31:47.079Z,0.00
2018-06-27T00:32:47.079Z,0.00
2018-06-27T00:33:47.116Z,0.00
2018-06-27T00:34:47.080Z,0.00
2018-06-27T00:36:08.582Z,0.00
2018-06-27T00:36:46.811Z,0.00
2018-06-27T00:37:48.512Z,0.00
2018-06-27T00:38:47.044Z,0.00
2018-06-27T00:40:09.075Z,0.00
2018-06-27T00:40:48.093Z,0.00
2018-06-27T00:41:47.421Z,0.00
2018-06-27T00:42:48.080Z,0.00
2018-06-27T00:43:48.579Z,0.00
2018-06-27T00:44:48.587Z,0.00
2018-06-27T00:45:48.579Z,0.00
2018-06-27T00:46:49.577Z,0.00
2018-06-27T00:47:49.079Z,0.00
2018-06-27T00:49:10.080Z,0.00
2018-06-27T00:49:49.079Z,0.00
2018-06-27T00:50:49.076Z,0.00
2018-06-27T00:51:49.579Z,0.00
2018-06-27T00:53:09.776Z,0.00
2018-06-27T00:55:21.036Z,0.00
2018-06-27T00:56:42.051Z,0.00
2018-06-27T00:57:21.043Z,0.00
2018-06-27T01:00:13.042Z,0.00
2018-06-27T01:00:52.142Z,0.00
2018-06-27T01:01:59.736Z,0.00
2018-06-27T01:02:53.303Z,0.00
2018-06-27T01:03:53.303Z,0.00
2018-06-27T01:04:53.303Z,0.00
2018-06-27T01:05:53.303Z,0.00
2018-06-27T01:06:52.901Z,0.00
2018-06-27T01:07:53.801Z,0.00
2018-06-27T01:08:55.280Z,0.00
2018-06-27T01:09:53.269Z,0.00
2018-06-27T01:10:53.390Z,0.00
2018-06-27T01:12:10.735Z,0.00
2018-06-27T01:12:54.320Z,0.00
2018-06-27T01:13:53.774Z,0.00
2018-06-27T01:15:08.802Z,0.00
2018-06-27T01:16:15.804Z,0.00
2018-06-27T01:16:54.804Z,0.00
2018-06-27T01:17:54.286Z,0.00
2018-06-27T01:18:55.303Z,0.00
2018-06-27T01:19:56.251Z,0.00
2018-06-27T01:20:55.302Z,0.00
2018-06-27T01:21:55.301Z,0.00
2018-06-27T01:22:54.899Z,0.00
2018-06-27T01:24:16.803Z,0.00
2018-06-27T01:24:55.803Z,0.00
2018-06-27T01:25:55.331Z,0.00
2018-06-27T01:26:57.803Z,0.00
2018-06-27T01:27:56.300Z,0.00
2018-06-27T01:28:56.311Z,0.00
2018-06-27T01:29:57.301Z,0.00
2018-06-27T01:30:58.802Z,0.00
2018-06-27T01:31:56.807Z,0.00
2018-06-27T01:33:17.807Z,0.00
2018-06-27T01:33:56.276Z,0.00
2018-06-27T01:34:56.379Z,0.00
2018-06-27T01:35:57.302Z,0.00
2018-06-27T01:36:57.304Z,0.00
2018-06-27T01:37:57.298Z,0.00
2018-06-27T01:38:57.300Z,0.00
2018-06-27T01:41:29.046Z,0.00
2018-06-27T01:42:29.052Z,0.00
2018-06-27T01:43:29.552Z,0.00
2018-06-27T01:44:29.559Z,0.00
2018-06-27T01:45:29.555Z,0.00
2018-06-27T01:46:32.485Z,0.00
2018-06-27T01:47:29.552Z,0.00
2018-06-27T01:48:30.056Z,0.00
2018-06-27T01:49:30.054Z,0.00
2018-06-27T01:50:30.055Z,0.00
2018-06-27T01:51:30.051Z,0.00
2018-06-27T01:52:30.552Z,0.00
2018-06-27T01:53:30.549Z,0.00
2018-06-27T01:54:30.558Z,0.00
2018-06-27T01:55:30.564Z,0.00
2018-06-27T01:56:52.985Z,0.00
2018-06-27T01:57:45.048Z,0.00
2018-06-27T01:58:45.126Z,0.00
2018-06-27T01:59:31.052Z,0.00
2018-06-27T02:00:31.558Z,0.00
2018-06-27T02:01:37.552Z,0.00
2018-06-27T02:02:31.552Z,0.00
2018-06-27T02:03:31.552Z,0.00
2018-06-27T02:04:32.057Z,0.00
2018-06-27T02:05:38.052Z,0.00
2018-06-27T02:06:32.053Z,0.00
2018-06-27T02:07:32.052Z,0.00
2018-06-27T02:08:33.552Z,0.00
2018-06-27T02:09:32.551Z,0.00
2018-06-27T02:10:53.554Z,0.00
2018-06-27T02:11:33.054Z,0.00
2018-06-27T02:12:36.523Z,0.00
2018-06-27T02:13:33.053Z,0.00
2018-06-27T02:14:33.076Z,0.00
2018-06-27T02:15:33.055Z,0.00
2018-06-27T02:16:33.552Z,0.00
2018-06-27T02:17:33.551Z,0.00
2018-06-27T02:18:33.552Z,0.00
2018-06-27T02:19:33.551Z,0.00
2018-06-27T02:20:35.513Z,0.00
2018-06-27T02:21:34.057Z,0.00
2018-06-27T02:22:34.052Z,0.00
2018-06-27T02:23:34.051Z,0.00
2018-06-27T02:26:05.802Z,0.00
2018-06-27T02:27:07.741Z,0.00
2018-06-27T02:28:06.771Z,0.00
2018-06-27T02:29:08.307Z,0.00
2018-06-27T02:30:06.309Z,0.00
2018-06-27T02:31:06.309Z,0.00
2018-06-27T02:32:06.308Z,0.00
2018-06-27T02:33:26.888Z,0.00
2018-06-27T02:34:06.810Z,0.00
2018-06-27T02:35:06.814Z,4.00
2018-06-27T02:36:06.809Z,4.00
2018-06-27T02:37:06.808Z,0.00
2018-06-27T02:38:07.312Z,0.00
2018-06-27T02:40:40.716Z,4.00
2018-06-27T02:41:38.069Z,4.00
2018-06-27T02:42:38.723Z,4.00
2018-06-27T02:43:39.230Z,4.00
2018-06-27T02:44:39.249Z,4.00
2018-06-27T02:45:39.221Z,8.00
2018-06-27T02:46:39.222Z,4.00
2018-06-27T02:48:01.677Z,8.00
2018-06-27T02:50:34.043Z,12.00
2018-06-27T02:51:10.396Z,12.00
2018-06-27T02:52:11.057Z,12.00
2018-06-27T02:53:13.552Z,12.00
2018-06-27T02:54:11.549Z,16.00
2018-06-27T02:55:11.555Z,16.00
2018-06-27T02:56:13.524Z,20.00
2018-06-27T02:57:13.484Z,24.00
2018-06-27T02:58:14.051Z,24.00
2018-06-27T02:59:12.049Z,28.00
2018-06-27T03:00:12.053Z,32.00
2018-06-27T03:01:12.052Z,36.00
2018-06-27T03:02:14.549Z,36.00
2018-06-27T03:03:39.548Z,44.00
2018-06-27T03:04:33.551Z,48.00
2018-06-27T03:05:12.549Z,52.00
2018-06-27T03:06:34.049Z,56.00
2018-06-27T03:07:34.050Z,60.00
2018-06-27T03:08:13.059Z,68.00
2018-06-27T03:09:34.059Z,72.00
2018-06-27T03:10:27.552Z,80.00
2018-06-27T03:11:33.747Z,84.00
2018-06-27T03:12:13.550Z,96.00
2018-06-27T03:13:13.556Z,100.00
2018-06-27T03:14:13.546Z,108.00
2018-06-27T03:15:14.049Z,112.00
2018-06-27T03:16:14.051Z,124.00
2018-06-27T03:17:14.048Z,128.00
2018-06-27T03:18:13.549Z,136.00
2018-06-27T03:19:14.552Z,148.00
2018-06-27T03:20:14.567Z,156.00
2018-06-27T03:21:14.548Z,164.00
2018-06-27T03:22:14.549Z,168.00
2018-06-27T03:23:14.145Z,176.00
2018-06-27T03:24:36.049Z,188.00
2018-06-27T03:25:14.406Z,196.00
2018-06-27T03:26:21.048Z,204.00
2018-06-27T03:27:22.550Z,208.00
2018-06-27T03:29:46.910Z,236.00
2018-06-27T03:30:46.918Z,244.00
2018-06-27T03:31:46.915Z,256.00
2018-06-27T03:32:47.414Z,264.00
2018-06-27T03:33:48.877Z,272.00
2018-06-27T03:34:47.419Z,280.00
2018-06-27T03:35:47.416Z,292.00
2018-06-27T03:36:47.012Z,304.00
2018-06-27T03:37:48.921Z,308.00
2018-06-27T03:38:47.921Z,316.00
2018-06-27T03:39:47.915Z,324.00
2018-06-27T03:41:09.414Z,332.00
2018-06-27T03:41:48.418Z,340.00
2018-06-27T03:42:48.421Z,348.00
2018-06-27T03:43:48.415Z,356.00
2018-06-27T03:44:50.912Z,364.00
2018-06-27T03:45:51.846Z,372.00
2018-06-27T03:47:09.924Z,380.00
2018-06-27T03:47:50.848Z,388.00
2018-06-27T03:49:12.412Z,396.00
2018-06-27T03:50:09.503Z,412.00
2018-06-27T03:51:10.414Z,424.00
2018-06-27T03:51:49.414Z,436.00
2018-06-27T03:52:49.419Z,448.00
2018-06-27T03:53:49.422Z,452.00
2018-06-27T03:55:03.916Z,472.00
2018-06-27T03:56:10.917Z,500.00
2018-06-27T03:56:49.915Z,508.00
2018-06-27T03:57:49.914Z,512.00
2018-06-27T04:00:21.661Z,532.00
2018-06-27T04:02:55.115Z,564.00
2018-06-27T04:03:54.113Z,596.00
2018-06-27T04:04:53.661Z,612.00
2018-06-27T04:06:14.661Z,628.00
2018-06-27T04:07:14.661Z,616.00
2018-06-27T04:08:15.617Z,616.00
2018-06-27T04:08:53.094Z,608.00
2018-06-27T04:10:14.167Z,584.00
2018-06-27T04:10:53.269Z,608.00
2018-06-27T04:11:56.593Z,588.00
2018-06-27T04:13:18.718Z,584.00
2018-06-27T04:13:54.161Z,592.00
2018-06-27T04:14:54.161Z,600.00
2018-06-27T04:16:15.661Z,616.00
2018-06-27T04:18:26.031Z,648.00
2018-06-27T04:19:25.391Z,656.00
2018-06-27T04:20:26.039Z,664.00
2018-06-27T04:21:26.536Z,664.00
2018-06-27T04:22:47.537Z,664.00
2018-06-27T04:23:28.007Z,668.00
2018-06-27T04:24:47.537Z,668.00
2018-06-27T04:25:49.511Z,680.00
2018-06-27T04:26:47.215Z,692.00
2018-06-27T04:27:49.503Z,708.00
2018-06-27T04:28:27.043Z,740.00
2018-06-27T04:29:48.969Z,764.00
2018-06-27T04:30:37.970Z,816.00
2018-06-27T04:36:01.824Z,824.00
2018-06-27T04:37:24.206Z,820.00
2018-06-27T04:38:01.772Z,884.00
2018-06-27T04:39:08.300Z,908.00
2018-06-27T04:40:02.271Z,828.00
2018-06-27T04:41:23.278Z,828.00
2018-06-27T04:42:02.272Z,840.00
2018-06-27T04:43:16.836Z,848.00
2018-06-27T04:44:02.772Z,912.00
2018-06-27T04:45:23.771Z,944.00
2018-06-27T04:46:02.771Z,960.00
2018-06-27T04:48:35.952Z,1068.00
2018-06-27T04:49:33.863Z,1128.00
2018-06-27T04:50:54.956Z,1196.00
2018-06-27T04:53:08.643Z,1232.00
2018-06-27T04:54:06.206Z,1224.00
2018-06-27T04:55:27.206Z,1208.00
2018-06-27T04:57:37.971Z,1144.00
2018-06-27T04:58:37.980Z,1144.00
2018-06-27T04:59:37.978Z,1136.00
2018-06-27T05:00:40.911Z,1136.00
2018-06-27T05:01:38.526Z,1132.00
2018-06-27T05:02:37.831Z,1124.00
2018-06-27T05:05:32.524Z,1168.00
2018-06-27T05:06:11.523Z,1208.00
2018-06-27T05:07:10.091Z,1260.00
2018-06-27T05:08:10.627Z,1320.00
2018-06-27T05:09:10.594Z,1356.00
2018-06-27T05:10:10.592Z,1356.00
2018-06-27T05:11:10.591Z,1368.00
2018-06-27T05:13:42.349Z,1324.00
2018-06-27T05:14:42.361Z,1292.00
2018-06-27T05:15:42.367Z,1252.00
2018-06-27T05:18:15.536Z,1100.00
2018-06-27T05:19:14.104Z,1100.00
2018-06-27T05:20:14.104Z,1112.00
2018-06-27T05:21:16.059Z,1112.00
2018-06-27T05:23:59.933Z,1116.00
2018-06-27T05:24:45.273Z,1120.00
2018-06-27T05:25:45.934Z,1120.00
2018-06-27T05:27:07.433Z,1128.00
2018-06-27T05:28:07.440Z,1128.00
2018-06-27T05:28:46.435Z,1124.00
2018-06-27T05:29:46.435Z,1128.00
2018-06-27T05:30:46.941Z,1124.00
2018-06-27T05:31:46.167Z,1124.00
2018-06-27T05:32:46.935Z,1128.00
2018-06-27T05:33:46.934Z,1128.00
2018-06-27T05:34:47.435Z,1128.00
2018-06-27T05:35:47.435Z,1128.00
2018-06-27T05:36:46.782Z,1128.00
2018-06-27T05:37:47.438Z,1136.00
2018-06-27T05:39:08.009Z,1140.00
2018-06-27T05:40:08.934Z,1140.00
2018-06-27T05:40:47.158Z,1140.00
2018-06-27T05:41:47.261Z,1148.00
2018-06-27T05:42:47.937Z,1136.00
2018-06-27T05:43:47.960Z,1156.00
2018-06-27T05:46:40.712Z,1164.00
2018-06-27T05:48:51.713Z,1172.00
2018-06-27T05:49:51.720Z,1176.00
2018-06-27T05:50:51.722Z,1180.00
2018-06-27T05:51:52.215Z,1180.00
2018-06-27T05:54:46.024Z,1184.00
2018-06-27T05:55:23.592Z,1188.00
2018-06-27T05:56:44.592Z,1192.00
2018-06-27T05:57:30.094Z,1204.00
2018-06-27T05:58:45.106Z,1204.00
2018-06-27T05:59:38.142Z,1208.00
2018-06-27T06:00:23.602Z,1212.00
2018-06-27T06:01:23.700Z,1212.00
2018-06-27T06:02:24.590Z,1216.00
2018-06-27T06:03:24.591Z,1220.00
2018-06-27T06:04:24.615Z,1228.00
2018-06-27T06:06:56.354Z,1232.00
2018-06-27T06:07:56.363Z,1236.00
2018-06-27T06:08:56.347Z,1240.00
2018-06-27T06:11:28.177Z,1260.00
2018-06-27T06:12:29.111Z,1268.00
2018-06-27T06:13:28.116Z,1264.00
2018-06-27T06:14:34.623Z,1264.00
2018-06-27T06:17:22.443Z,1268.00
2018-06-27T06:18:00.020Z,1272.00
2018-06-27T06:19:00.025Z,1268.00
2018-06-27T06:20:00.512Z,1272.00
2018-06-27T06:21:21.514Z,1272.00
2018-06-27T06:22:00.515Z,1272.00
2018-06-27T06:23:00.516Z,1276.00
2018-06-27T06:24:24.016Z,1276.00
2018-06-27T06:25:01.012Z,1288.00
2018-06-27T06:26:01.012Z,1284.00
2018-06-27T06:28:22.509Z,1284.00
2018-06-27T06:30:53.922Z,1288.00
2018-06-27T06:31:33.937Z,1288.00
2018-06-27T06:32:32.971Z,1296.00
2018-06-27T06:33:36.865Z,1292.00
2018-06-27T06:34:54.429Z,1300.00
2018-06-27T06:35:47.429Z,1308.00
2018-06-27T06:38:00.940Z,1320.00
2018-06-27T06:41:44.195Z,1328.00
2018-06-27T06:42:36.763Z,1336.00
2018-06-27T06:43:36.762Z,1352.00
2018-06-27T06:44:37.267Z,1356.00
2018-06-27T06:45:37.264Z,1356.00
2018-06-27T06:46:37.263Z,1364.00
2018-06-27T06:48:00.195Z,1368.00
2018-06-27T06:48:58.764Z,1372.00
2018-06-27T06:49:58.771Z,1376.00
2018-06-27T06:50:37.764Z,1376.00
2018-06-27T06:51:37.763Z,1384.00
2018-06-27T06:52:38.257Z,1396.00
2018-06-27T06:53:38.264Z,1400.00
2018-06-27T06:54:38.263Z,1404.00
2018-06-27T06:55:38.266Z,1408.00
2018-06-27T06:56:52.763Z,1412.00
2018-06-27T06:59:30.439Z,1448.00
2018-06-27T07:00:09.539Z,1452.00
2018-06-27T07:01:10.119Z,1452.00
2018-06-27T07:02:10.655Z,1460.00
2018-06-27T07:03:09.902Z,1480.00
2018-06-27T07:04:10.655Z,1476.00
2018-06-27T07:05:10.656Z,1480.00
2018-06-27T07:07:48.413Z,1500.00
2018-06-27T07:10:27.913Z,1512.00
2018-06-27T07:14:18.342Z,1568.00
2018-06-27T07:15:38.376Z,1576.00
2018-06-27T07:16:16.856Z,1588.00
2018-06-27T07:17:17.874Z,1604.00
2018-06-27T07:19:57.240Z,1600.00
2018-06-27T07:20:49.784Z,1620.00
2018-06-27T07:21:50.283Z,1660.00
2018-06-27T07:22:50.288Z,1632.00
2018-06-27T07:23:52.290Z,1648.00
2018-06-27T07:24:50.285Z,1680.00
2018-06-27T07:27:43.043Z,1704.00
2018-06-27T07:28:22.064Z,1744.00
2018-06-27T07:29:22.548Z,1748.00
2018-06-27T07:30:21.652Z,1756.00
2018-06-27T07:31:43.550Z,1784.00
2018-06-27T07:34:15.063Z,1832.00
2018-06-27T07:34:54.096Z,1864.00
2018-06-27T07:36:15.080Z,1908.00
2018-06-27T07:37:08.568Z,1932.00
2018-06-27T07:37:54.570Z,1952.00
2018-06-27T07:38:54.570Z,1952.00
2018-06-27T07:39:54.571Z,1956.00
2018-06-27T07:41:17.513Z,2020.00
2018-06-27T07:41:56.507Z,2072.00
2018-06-27T07:44:26.471Z,2148.00
2018-06-27T07:46:59.451Z,1672.00
2018-06-27T07:47:57.983Z,1284.00
2018-06-27T07:48:58.002Z,2128.00
2018-06-27T07:50:25.486Z,2272.00
2018-06-27T07:51:19.484Z,2272.00
2018-06-27T07:51:57.847Z,2392.00
2018-06-27T07:52:58.484Z,2436.00
2018-06-27T07:53:58.124Z,1952.00
2018-06-27T07:54:58.984Z,2420.00
2018-06-27T07:55:58.341Z,2444.00
2018-06-27T07:56:58.985Z,2216.00
2018-06-27T07:57:59.918Z,2536.00
2018-06-27T07:59:22.487Z,1340.00
2018-06-27T08:00:04.486Z,2572.00
2018-06-27T08:01:13.496Z,2604.00
2018-06-27T08:01:59.498Z,2340.00
2018-06-27T08:02:59.998Z,1800.00
2018-06-27T08:03:59.220Z,2676.00
2018-06-27T08:04:59.985Z,2532.00
2018-06-27T08:06:00.098Z,2412.00
2018-06-27T08:07:21.487Z,2192.00
2018-06-27T08:07:59.734Z,1916.00
2018-06-27T08:09:00.486Z,3028.00
2018-06-27T08:10:00.492Z,3176.00
2018-06-27T08:11:21.075Z,3388.00
2018-06-27T08:13:32.347Z,2812.00
2018-06-27T08:14:59.332Z,3904.00
2018-06-27T08:15:32.334Z,4356.00
2018-06-27T08:16:31.937Z,3168.00
2018-06-27T08:17:53.161Z,4084.00
2018-06-27T08:18:32.835Z,4420.00
2018-06-27T08:19:32.858Z,4848.00
2018-06-27T08:20:32.837Z,5212.00
2018-06-27T08:21:47.332Z,4704.00
2018-06-27T08:24:10.658Z,4268.00
2018-06-27T08:28:07.679Z,4612.00
2018-06-27T08:29:30.620Z,4876.00
2018-06-27T08:30:07.166Z,5264.00
2018-06-27T08:32:39.434Z,4656.00
2018-06-27T08:33:38.788Z,4340.00
2018-06-27T08:34:39.435Z,4316.00
2018-06-27T08:35:42.391Z,4820.00
2018-06-27T08:38:11.270Z,4724.00
2018-06-27T08:39:11.277Z,4520.00
2018-06-27T08:40:10.782Z,4056.00
2018-06-27T08:41:25.776Z,3420.00
2018-06-27T08:42:11.780Z,3016.00
2018-06-27T08:43:13.778Z,3016.00
2018-06-27T08:45:43.212Z,2808.00
2018-06-27T08:46:43.314Z,2812.00
2018-06-27T08:47:43.926Z,3300.00
2018-06-27T08:48:44.428Z,3520.00
2018-06-27T08:52:47.768Z,3908.00
2018-06-27T08:54:10.246Z,3696.00
2018-06-27T08:54:47.787Z,3400.00
2018-06-27T08:55:48.708Z,3076.00
2018-06-27T08:56:48.275Z,2924.00
2018-06-27T08:58:09.275Z,2804.00
2018-06-27T08:59:09.275Z,2748.00
2018-06-27T08:59:48.276Z,2704.00
2018-06-27T09:00:48.775Z,2716.00
2018-06-27T09:01:48.774Z,2756.00
2018-06-27T09:04:47.300Z,2740.00
2018-06-27T09:06:53.806Z,2780.00
2018-06-27T09:09:23.340Z,2836.00
2018-06-27T09:11:54.841Z,3024.00
2018-06-27T09:12:54.848Z,2880.00
2018-06-27T09:13:54.848Z,2836.00
2018-06-27T09:14:55.347Z,2888.00
2018-06-27T09:17:26.744Z,2908.00
2018-06-27T09:18:26.745Z,2836.00
2018-06-27T09:19:26.745Z,2904.00
2018-06-27T09:21:58.502Z,3456.00
2018-06-27T09:22:58.506Z,3492.00
2018-06-27T09:23:59.438Z,3180.00
2018-06-27T09:25:01.006Z,3232.00
2018-06-27T09:26:00.481Z,3448.00
2018-06-27T09:26:59.011Z,3632.00
2018-06-27T09:28:13.007Z,3536.00
2018-06-27T09:35:48.494Z,3616.00
2018-06-27T09:36:48.091Z,3376.00
2018-06-27T09:37:41.993Z,3428.00
2018-06-27T09:38:27.353Z,3604.00
2018-06-27T09:39:48.997Z,3596.00
2018-06-27T09:40:49.498Z,3536.00
2018-06-27T09:41:30.507Z,3452.00
2018-06-27T09:42:28.503Z,3368.00
2018-06-27T09:43:28.497Z,3544.00
2018-06-27T09:44:30.998Z,3592.00
2018-06-27T09:45:49.999Z,3784.00
2018-06-27T09:46:28.359Z,3984.00
2018-06-27T09:47:30.996Z,4328.00
2018-06-27T09:48:52.499Z,4556.00
2018-06-27T09:49:52.499Z,4364.00
2018-06-27T09:50:29.617Z,4212.00
2018-06-27T09:51:50.064Z,3980.00
2018-06-27T09:52:32.002Z,3884.00
2018-06-27T09:53:52.460Z,3976.00
2018-06-27T09:54:52.453Z,4272.00
2018-06-27T09:55:44.001Z,3868.00
2018-06-27T09:56:32.433Z,3552.00
2018-06-27T09:59:01.101Z,5200.00
2018-06-27T10:00:08.276Z,6080.00
2018-06-27T10:01:01.267Z,7044.00
2018-06-27T10:02:16.308Z,6792.00
2018-06-27T10:03:02.308Z,4524.00
2018-06-27T10:04:25.748Z,3576.00
2018-06-27T10:05:02.318Z,4484.00
2018-06-27T10:06:02.307Z,4648.00
2018-06-27T10:07:27.265Z,5364.00
2018-06-27T10:08:23.002Z,5408.00
2018-06-27T10:09:23.807Z,5188.00
2018-06-27T10:10:08.811Z,5040.00
2018-06-27T10:11:23.813Z,4864.00
2018-06-27T10:12:17.316Z,4368.00
2018-06-27T10:13:03.308Z,4320.00
2018-06-27T10:14:24.309Z,4184.00
2018-06-27T10:16:40.941Z,4436.00
2018-06-27T10:19:06.443Z,5896.00
2018-06-27T10:20:08.445Z,6084.00
2018-06-27T10:21:18.877Z,6072.00
2018-06-27T10:23:44.214Z,6140.00
2018-06-27T10:24:59.216Z,5672.00
2018-06-27T10:25:38.213Z,5296.00
2018-06-27T10:26:37.816Z,4920.00
2018-06-27T10:27:38.727Z,4548.00
2018-06-27T10:28:38.714Z,4424.00
2018-06-27T10:29:53.213Z,4180.00
2018-06-27T10:32:10.487Z,4420.00
2018-06-27T10:33:31.498Z,4512.00
2018-06-27T10:34:10.489Z,4672.00
2018-06-27T10:35:10.992Z,3384.00
2018-06-27T10:37:56.385Z,5996.00
2018-06-27T10:41:47.355Z,6588.00
2018-06-27T10:42:45.360Z,6576.00
2018-06-27T10:43:45.359Z,6120.00
2018-06-27T10:44:51.860Z,3628.00
2018-06-27T10:45:45.864Z,3992.00
2018-06-27T10:46:52.792Z,6744.00
2018-06-27T10:47:45.331Z,7260.00
2018-06-27T10:50:17.624Z,5712.00
2018-06-27T10:51:18.539Z,6248.00
2018-06-27T10:52:19.038Z,6508.00
2018-06-27T10:53:17.202Z,5928.00
2018-06-27T10:54:38.301Z,5192.00
2018-06-27T10:55:18.109Z,4964.00
2018-06-27T10:56:18.107Z,5148.00
2018-06-27T10:57:18.106Z,6476.00
2018-06-27T10:58:20.611Z,7216.00
2018-06-27T10:59:39.607Z,7484.00
2018-06-27T11:04:45.126Z,7444.00
2018-06-27T11:05:22.698Z,7124.00
2018-06-27T11:06:22.044Z,6976.00
2018-06-27T11:07:22.692Z,6392.00
2018-06-27T11:08:22.259Z,5856.00
2018-06-27T11:10:57.020Z,6352.00
2018-06-27T11:12:22.030Z,6000.00
2018-06-27T11:12:54.546Z,5456.00
2018-06-27T11:15:26.900Z,4692.00
2018-06-27T11:16:26.844Z,4568.00
2018-06-27T11:17:48.314Z,4864.00
2018-06-27T11:18:27.420Z,4184.00
2018-06-27T11:19:48.322Z,6804.00
2018-06-27T11:21:27.816Z,7300.00
2018-06-27T11:22:48.816Z,7088.00
2018-06-27T11:23:27.189Z,7256.00
2018-06-27T11:24:29.249Z,6616.00
2018-06-27T11:26:58.984Z,7456.00
2018-06-27T11:29:33.595Z,8644.00
2018-06-27T11:30:30.826Z,9072.00
2018-06-27T11:31:38.596Z,8620.00
2018-06-27T11:32:33.134Z,7460.00
2018-06-27T11:33:38.118Z,6792.00
2018-06-27T11:37:36.971Z,5580.00
2018-06-27T11:40:26.772Z,5504.00
2018-06-27T11:41:12.493Z,4956.00
2018-06-27T11:43:38.134Z,4904.00
2018-06-27T11:47:47.095Z,6288.00
2018-06-27T11:50:14.601Z,6184.00
2018-06-27T11:52:44.149Z,5880.00
2018-06-27T11:53:44.156Z,6088.00
2018-06-27T11:55:05.156Z,6888.00
2018-06-27T11:55:46.659Z,6812.00
2018-06-27T11:59:48.940Z,7924.00
2018-06-27T12:01:08.505Z,7092.00
2018-06-27T12:01:47.013Z,7440.00
2018-06-27T12:03:08.089Z,7856.00
2018-06-27T12:04:11.007Z,8976.00
2018-06-27T12:04:54.012Z,10676.00
2018-06-27T12:05:48.006Z,9696.00
2018-06-27T12:06:50.507Z,7648.00
2018-06-27T12:07:50.506Z,6184.00
2018-06-27T12:10:20.024Z,6652.00
2018-06-27T12:11:20.032Z,7584.00
2018-06-27T12:12:19.542Z,9084.00
2018-06-27T12:13:40.617Z,7516.00
2018-06-27T12:14:19.724Z,7356.00
2018-06-27T12:15:20.531Z,9388.00
2018-06-27T12:16:22.549Z,8464.00
2018-06-27T12:17:41.531Z,7080.00
2018-06-27T12:18:23.033Z,6128.00
2018-06-27T12:19:21.031Z,7620.00
2018-06-27T12:20:21.036Z,9544.00
2018-06-27T12:21:21.039Z,7504.00
2018-06-27T12:22:27.532Z,6344.00
2018-06-27T12:23:27.530Z,5968.00
2018-06-27T12:24:21.537Z,5796.00
2018-06-27T12:25:21.537Z,8636.00
2018-06-27T12:28:07.299Z,9460.00
2018-06-27T12:28:59.304Z,8332.00
2018-06-27T12:29:53.305Z,6376.00
2018-06-27T12:30:52.961Z,6068.00
2018-06-27T12:31:54.242Z,9764.00
2018-06-27T12:32:53.173Z,9532.00
2018-06-27T12:33:56.236Z,8780.00
2018-06-27T12:34:57.716Z,7992.00
2018-06-27T12:39:03.131Z,6836.00
2018-06-27T12:39:57.138Z,6844.00
2018-06-27T12:40:57.141Z,6780.00
2018-06-27T12:41:59.648Z,4616.00
2018-06-27T12:44:43.042Z,6700.00
2018-06-27T12:45:29.053Z,7212.00
2018-06-27T12:46:50.076Z,8036.00
2018-06-27T12:47:52.560Z,8376.00
2018-06-27T12:48:29.547Z,10500.00
2018-06-27T12:49:29.562Z,10196.00
2018-06-27T12:52:01.735Z,10704.00
2018-06-27T12:53:03.147Z,7396.00
2018-06-27T12:57:04.952Z,10360.00
2018-06-27T12:58:04.954Z,11076.00
2018-06-27T13:03:53.126Z,8516.00
2018-06-27T13:04:29.645Z,8492.00
2018-06-27T13:07:30.925Z,7140.00
2018-06-27T13:08:03.924Z,7192.00
2018-06-27T13:09:24.926Z,6668.00
2018-06-27T13:10:03.937Z,6424.00
2018-06-27T13:11:04.426Z,5804.00
2018-06-27T13:12:03.660Z,6036.00
2018-06-27T13:13:27.449Z,10888.00
2018-06-27T13:14:04.427Z,10796.00
2018-06-27T13:15:05.902Z,10900.00
2018-06-27T13:16:04.938Z,7356.00
2018-06-27T13:17:04.938Z,8072.00
2018-06-27T13:18:04.933Z,6936.00
2018-06-27T13:19:08.412Z,5884.00
2018-06-27T13:20:26.424Z,4992.00
2018-06-27T13:21:27.446Z,4528.00
2018-06-27T13:22:07.726Z,4456.00
2018-06-27T13:23:19.925Z,4632.00
2018-06-27T13:24:26.935Z,5536.00
2018-06-27T13:25:06.919Z,9828.00
2018-06-27T13:26:26.936Z,12380.00
2018-06-27T13:27:05.938Z,7508.00
2018-06-27T13:28:27.427Z,6164.00
2018-06-27T13:29:05.645Z,5816.00
2018-06-27T13:30:06.430Z,9520.00
2018-06-27T13:31:08.421Z,6640.00
2018-06-27T13:32:06.043Z,6188.00
2018-06-27T13:34:38.289Z,6784.00
2018-06-27T13:35:38.303Z,8444.00
2018-06-27T13:36:59.302Z,8172.00
2018-06-27T13:38:00.806Z,13840.00
2018-06-27T13:38:38.798Z,11956.00
2018-06-27T13:39:38.801Z,12264.00
2018-06-27T13:40:38.870Z,10264.00
2018-06-27T13:41:42.748Z,12568.00
2018-06-27T13:42:39.297Z,13392.00
2018-06-27T13:43:39.309Z,13660.00
2018-06-27T13:44:40.731Z,10996.00
2018-06-27T13:45:38.907Z,9340.00
2018-06-27T13:46:40.297Z,9416.00
2018-06-27T13:47:39.800Z,7532.00
2018-06-27T13:48:39.810Z,6716.00
2018-06-27T13:53:03.285Z,11664.00
2018-06-27T13:53:43.018Z,11536.00
2018-06-27T13:54:43.020Z,12388.00
2018-06-27T13:59:07.270Z,12548.00
2018-06-27T13:59:46.282Z,10508.00
2018-06-27T14:00:46.285Z,9104.00
2018-06-27T14:01:53.775Z,9512.00
2018-06-27T14:03:07.778Z,9304.00
2018-06-27T14:05:18.813Z,8696.00
2018-06-27T14:06:18.844Z,6828.00
2018-06-27T14:07:18.183Z,5460.00
2018-06-27T14:08:20.269Z,4372.00
2018-06-27T14:10:50.577Z,5348.00
2018-06-27T14:11:50.651Z,6160.00
2018-06-27T14:12:50.583Z,7152.00
2018-06-27T14:14:14.084Z,7812.00
2018-06-27T14:14:52.081Z,7512.00
2018-06-27T14:15:53.056Z,7292.00
2018-06-27T14:16:51.083Z,6644.00
2018-06-27T14:18:16.048Z,6440.00
2018-06-27T14:20:43.943Z,11652.00
2018-06-27T14:21:22.949Z,14148.00
2018-06-27T14:22:28.950Z,13460.00
2018-06-27T14:23:23.453Z,12716.00
2018-06-27T14:25:54.830Z,4088.00
2018-06-27T14:27:02.304Z,3020.00
2018-06-27T14:27:54.834Z,2824.00
2018-06-27T14:28:55.337Z,2896.00
2018-06-27T14:31:26.736Z,3436.00
2018-06-27T14:32:26.740Z,3584.00
2018-06-27T14:33:26.216Z,3880.00
2018-06-27T14:34:41.242Z,4368.00
2018-06-27T14:36:58.620Z,9664.00
2018-06-27T14:38:13.621Z,16256.00
2018-06-27T14:38:58.624Z,12168.00
2018-06-27T14:40:21.059Z,9508.00
2018-06-27T14:41:00.563Z,14748.00
2018-06-27T14:42:20.130Z,13220.00
2018-06-27T14:42:59.124Z,12252.00
2018-06-27T14:43:59.197Z,11756.00
2018-06-27T14:44:58.730Z,11440.00
2018-06-27T14:46:20.635Z,11336.00
2018-06-27T14:47:01.592Z,11340.00
2018-06-27T14:47:59.625Z,11336.00
2018-06-27T14:49:21.189Z,11356.00
2018-06-27T14:51:52.508Z,11500.00
2018-06-27T14:52:32.951Z,11520.00
2018-06-27T14:53:32.456Z,11280.00
2018-06-27T14:54:38.033Z,11768.00
2018-06-27T14:58:40.753Z,10504.00
2018-06-27T14:59:34.189Z,5040.00
2018-06-27T15:00:58.686Z,10204.00
2018-06-27T15:01:35.255Z,12208.00
2018-06-27T15:02:35.689Z,12368.00
2018-06-27T15:03:35.267Z,12120.00
2018-06-27T15:04:35.756Z,11944.00
2018-06-27T15:05:34.863Z,11980.00
2018-06-27T15:06:35.760Z,12112.00
2018-06-27T15:07:35.755Z,9076.00
2018-06-27T15:08:35.752Z,4316.00
2018-06-27T15:09:57.341Z,10580.00
2018-06-27T15:10:36.255Z,4104.00
2018-06-27T15:11:35.612Z,12296.00
2018-06-27T15:12:36.255Z,11600.00
2018-06-27T15:15:29.026Z,9764.00
2018-06-27T15:16:29.036Z,5768.00
2018-06-27T15:17:29.034Z,10940.00
2018-06-27T15:18:07.698Z,10628.00
2018-06-27T15:19:07.797Z,10492.00
2018-06-27T15:20:15.534Z,10512.00
2018-06-27T15:21:08.534Z,10236.00
2018-06-27T15:22:29.121Z,9924.00